Creek Data

    Home     View Charts     View Raw Data     Messages

ID Distance Battery Voltage Battery Current Internal Temp Internal Humidity External Temp Solar Input rssi snr Time Stamp Record
65602 15.2 4.10 8 80 42 65 5.1 -74 8 02/07/2026 01:00 PM 48398
65601 15.3 3.92 8 78 42 65 5.1 -75 8 02/07/2026 12:45 PM 48397
65600 15.3 3.92 8 75 42 62 5.1 -75 8 02/07/2026 12:15 PM 48395
65599 15.2 3.92 0 73 42 66 5.1 -76 8 02/07/2026 12:00 PM 48394
65598 15.3 4.05 8 70 42 62 5.1 -75 7 02/07/2026 11:45 AM 48393
65597 15.2 3.92 0 67 43 59 5.1 -75 7 02/07/2026 11:30 AM 48392
65596 15.2 3.93 0 66 43 60 5.1 -75 8 02/07/2026 11:15 AM 48391
65595 15.3 3.92 8 64 42 58 5.1 -75 7 02/07/2026 11:00 AM 48390
65594 15.2 4.12 8 57 45 58 5.1 -75 7 02/07/2026 10:30 AM 48388
65593 15.1 3.92 0 54 46 53 5.1 -75 8 02/07/2026 10:15 AM 48387
65592 15.3 3.92 0 52 46 52 5.1 -77 8 02/07/2026 10:00 AM 48386
65591 15.1 3.93 8 49 47 50 5.1 -76 8 02/07/2026 09:45 AM 48385
65590 15.0 4.08 85 47 47 47 4.5 -77 8 02/07/2026 09:30 AM 48384
65589 15.0 4.06 77 46 48 46 4.5 -79 8 02/07/2026 09:15 AM 48383
65588 15.0 3.99 44 45 47 45 4.5 -82 8 02/07/2026 09:00 AM 48382
65587 15.0 3.95 19 46 46 45 4.5 -83 8 02/07/2026 08:45 AM 48381
65586 15.0 3.92 9 44 46 45 5.1 -83 7 02/07/2026 08:30 AM 48380
65585 15.0 4.10 90 41 48 44 4.5 -83 8 02/07/2026 08:15 AM 48379
65584 15.0 3.88 -6 39 49 39 4.5 -84 8 02/07/2026 08:00 AM 48378
65583 15.0 3.84 0 39 49 39 4.5 -83 8 02/07/2026 07:45 AM 48377
65582 15.0 3.90 0 39 49 39 4.5 -82 8 02/07/2026 07:30 AM 48376
65581 15.0 3.82 -7 39 50 40 4.6 -81 8 02/07/2026 07:15 AM 48375
65580 15.0 3.81 -10 39 50 39 2.3 -81 8 02/07/2026 07:00 AM 48374
65579 15.0 3.88 -5 38 50 39 1 -78 8 02/07/2026 06:45 AM 48373
65578 15.0 3.82 -5 40 49 40 0 -77 9 02/07/2026 06:30 AM 48372